createdAt,value
2019-02-22T00:00:59.233Z,10.30
2019-02-22T00:02:03.675Z,10.30
2019-02-22T00:11:36.966Z,10.20
2019-02-22T00:14:48.578Z,10.20
2019-02-22T00:21:11.090Z,10.20
2019-02-22T00:23:19.075Z,10.20
2019-02-22T00:24:23.467Z,10.20
2019-02-22T00:27:35.455Z,10.20
2019-02-22T00:29:43.491Z,10.20
2019-02-22T00:30:48.093Z,10.20
2019-02-22T00:32:56.186Z,10.10
2019-02-22T00:34:00.609Z,10.20
2019-02-22T00:35:06.407Z,10.20
2019-02-22T00:36:11.115Z,10.30
2019-02-22T00:37:15.871Z,10.30
2019-02-22T00:38:20.494Z,10.20
2019-02-22T00:40:28.493Z,10.20
2019-02-22T00:41:32.995Z,10.20
2019-02-22T00:42:37.414Z,10.20
2019-02-22T00:44:45.380Z,10.20
2019-02-22T00:45:49.824Z,10.20
2019-02-22T00:46:54.184Z,10.20
2019-02-22T00:47:58.638Z,10.20
2019-02-22T00:50:06.740Z,10.20
2019-02-22T00:51:11.251Z,10.20
2019-02-22T00:52:15.663Z,10.40
2019-02-22T00:54:24.675Z,10.20
2019-02-22T00:57:36.299Z,10.20
2019-02-22T00:59:44.231Z,10.20
2019-02-22T01:02:55.870Z,10.20
2019-02-22T01:04:00.584Z,10.20
2019-02-22T01:06:08.875Z,10.20
2019-02-22T01:08:16.896Z,10.10
2019-02-22T01:11:28.579Z,10.20
2019-02-22T01:13:36.580Z,10.20
2019-02-22T01:15:44.581Z,10.20
2019-02-22T01:16:48.987Z,10.10
2019-02-22T01:17:53.405Z,10.20
2019-02-22T01:20:01.719Z,10.20
2019-02-22T01:23:13.410Z,10.00
2019-02-22T01:25:21.492Z,10.20
2019-02-22T01:33:51.397Z,10.20
2019-02-22T01:34:57.508Z,10.30
2019-02-22T01:39:12.793Z,10.20
2019-02-22T01:40:17.205Z,10.20
2019-02-22T01:42:25.302Z,10.20
2019-02-22T01:43:29.703Z,9.90
2019-02-22T01:44:35.135Z,10.20
2019-02-22T01:46:43.144Z,10.20
2019-02-22T01:48:51.144Z,10.20
2019-02-22T01:50:59.136Z,10.20
2019-02-22T01:53:07.145Z,10.20
2019-02-22T01:55:15.242Z,10.20
2019-02-22T01:57:23.345Z,10.00
2019-02-22T01:59:31.447Z,10.20
2019-02-22T02:00:36.414Z,10.30
2019-02-22T02:02:44.484Z,10.10
2019-02-22T02:04:52.455Z,10.20
2019-02-22T02:07:00.457Z,10.10
2019-02-22T02:12:19.844Z,10.20
2019-02-22T02:14:27.861Z,10.20
2019-02-22T02:15:32.250Z,10.20
2019-02-22T02:19:47.411Z,10.20
2019-02-22T02:20:51.904Z,10.20
2019-02-22T02:23:00.162Z,10.30
2019-02-22T02:25:09.467Z,10.20
2019-02-22T02:27:17.497Z,10.20
2019-02-22T02:28:21.899Z,10.20
2019-02-22T02:29:26.264Z,10.20
2019-02-22T02:30:30.665Z,10.20
2019-02-22T02:33:42.313Z,10.20
2019-02-22T02:34:46.715Z,10.00
2019-02-22T02:35:51.230Z,9.90
2019-02-22T02:39:04.971Z,10.20
2019-02-22T02:40:11.129Z,10.20
2019-02-22T02:41:15.531Z,10.20
2019-02-22T02:42:19.915Z,10.20
2019-02-22T02:44:28.274Z,10.20
2019-02-22T02:45:32.964Z,10.20
2019-02-22T02:47:40.944Z,10.20
2019-02-22T02:49:48.963Z,10.20
2019-02-22T02:53:00.551Z,10.20
2019-02-22T02:55:25.448Z,10.20
2019-02-22T02:56:30.060Z,10.10
2019-02-22T02:57:34.455Z,10.30
2019-02-22T02:59:42.445Z,10.00
2019-02-22T03:00:46.888Z,10.20
2019-02-22T03:02:55.133Z,9.90
2019-02-22T03:06:07.196Z,10.20
2019-02-22T03:08:15.292Z,10.20
2019-02-22T03:11:26.881Z,10.20
2019-02-22T03:12:31.298Z,10.20
2019-02-22T03:15:42.856Z,10.30
2019-02-22T03:19:58.070Z,10.30
2019-02-22T03:22:06.320Z,10.20
2019-02-22T03:23:10.713Z,10.20
2019-02-22T03:25:18.955Z,10.40
2019-02-22T03:27:26.940Z,10.20
2019-02-22T03:29:34.917Z,10.20
2019-02-22T03:30:39.309Z,10.30
2019-02-22T03:32:47.436Z,10.10
2019-02-22T03:33:52.144Z,10.10
2019-02-22T03:36:00.353Z,10.30
2019-02-22T03:38:08.348Z,9.80
2019-02-22T03:39:12.964Z,10.20
2019-02-22T03:41:31.959Z,10.40
2019-02-22T03:42:27.307Z,10.20
2019-02-22T03:46:42.572Z,10.20
2019-02-22T03:47:47.403Z,10.20
2019-02-22T03:57:21.691Z,10.20
2019-02-22T03:58:26.089Z,9.90
2019-02-22T03:59:30.470Z,10.20
2019-02-22T04:01:38.480Z,10.00
2019-02-22T04:05:53.755Z,10.10
2019-02-22T04:06:58.206Z,10.20
2019-02-22T04:09:09.610Z,9.90
2019-02-22T04:13:24.978Z,10.20
2019-02-22T04:16:36.625Z,10.10
2019-02-22T04:19:48.203Z,10.10
2019-02-22T04:20:52.625Z,10.00
2019-02-22T04:23:00.626Z,10.10
2019-02-22T04:25:08.865Z,10.30
2019-02-22T04:27:17.037Z,10.10
2019-02-22T04:28:21.439Z,10.10
2019-02-22T04:31:33.024Z,10.10
2019-02-22T04:33:41.029Z,9.90
2019-02-22T04:35:49.139Z,10.40
2019-02-22T04:39:01.023Z,10.30
2019-02-22T04:44:22.469Z,10.20
2019-02-22T04:49:41.332Z,10.10
2019-02-22T04:50:45.695Z,9.90
2019-02-22T04:51:50.143Z,10.30
2019-02-22T04:52:54.563Z,10.10
2019-02-22T04:53:58.974Z,10.10
2019-02-22T04:57:11.200Z,10.10
2019-02-22T05:02:30.045Z,10.30
2019-02-22T05:05:42.663Z,10.20
2019-02-22T05:06:47.069Z,10.10
2019-02-22T05:08:55.072Z,10.10
2019-02-22T05:09:59.485Z,10.10
2019-02-22T05:12:10.808Z,10.10
2019-02-22T05:15:21.224Z,10.20
2019-02-22T05:21:43.679Z,10.20
2019-02-22T05:24:55.273Z,10.00
2019-02-22T05:26:01.293Z,10.20
2019-02-22T05:27:05.730Z,9.90
2019-02-22T05:29:13.733Z,10.10
2019-02-22T05:30:18.144Z,10.30
2019-02-22T05:31:22.553Z,10.30
2019-02-22T05:34:34.528Z,9.90
2019-02-22T05:36:44.296Z,10.20
2019-02-22T05:38:52.610Z,10.10
2019-02-22T05:41:00.690Z,10.00
2019-02-22T05:42:05.306Z,10.10
2019-02-22T05:43:09.932Z,10.10
2019-02-22T05:44:14.300Z,10.10
2019-02-22T05:48:30.542Z,9.90
2019-02-22T05:50:38.553Z,10.10
2019-02-22T05:54:53.722Z,10.00
2019-02-22T05:58:06.360Z,10.20
2019-02-22T05:59:11.055Z,10.10
2019-02-22T06:00:15.457Z,10.10
2019-02-22T06:01:19.828Z,10.20
2019-02-22T06:03:28.067Z,10.10
2019-02-22T06:06:39.629Z,10.10
2019-02-22T06:08:47.616Z,10.10
2019-02-22T06:13:02.865Z,10.20
2019-02-22T06:14:07.234Z,10.00
2019-02-22T06:15:11.959Z,10.10
2019-02-22T06:17:19.971Z,10.30
2019-02-22T06:18:24.389Z,10.10
2019-02-22T06:19:28.810Z,10.10
2019-02-22T06:23:44.266Z,10.00
2019-02-22T06:25:52.365Z,10.00
2019-02-22T06:26:56.806Z,10.00
2019-02-22T06:29:05.214Z,10.10
2019-02-22T06:31:13.815Z,10.10
2019-02-22T06:34:25.405Z,9.90
2019-02-22T06:35:29.933Z,10.10
2019-02-22T06:37:37.905Z,10.20
2019-02-22T06:38:42.281Z,10.30
2019-02-22T06:42:57.506Z,9.80
2019-02-22T06:46:11.361Z,10.20
2019-02-22T06:49:23.612Z,10.10
2019-02-22T06:58:57.518Z,10.10
2019-02-22T07:00:02.315Z,10.30
2019-02-22T07:03:14.033Z,10.00
2019-02-22T07:08:33.615Z,10.20
2019-02-22T07:10:41.923Z,10.10
2019-02-22T07:13:54.637Z,10.20
2019-02-22T07:16:02.631Z,10.20
2019-02-22T07:17:07.007Z,10.10
2019-02-22T07:18:11.388Z,10.20
2019-02-22T07:23:30.807Z,10.30
2019-02-22T07:25:38.836Z,10.20
2019-02-22T07:30:57.684Z,9.90
2019-02-22T07:33:05.667Z,10.30
2019-02-22T07:34:11.340Z,10.30
2019-02-22T07:35:16.068Z,10.30
2019-02-22T07:38:27.666Z,10.30
2019-02-22T07:39:32.053Z,10.30
2019-02-22T07:40:36.485Z,10.30
2019-02-22T07:42:44.546Z,10.30
2019-02-22T07:48:04.061Z,10.10
2019-02-22T07:50:12.066Z,10.50
2019-02-22T07:54:27.350Z,10.50
2019-02-22T07:57:40.054Z,10.60
2019-02-22T07:59:48.676Z,10.60
2019-02-22T08:03:00.679Z,10.70
2019-02-22T08:04:05.097Z,10.70
2019-02-22T08:06:13.189Z,10.70
2019-02-22T08:08:21.605Z,10.70
2019-02-22T08:09:26.016Z,10.80
2019-02-22T08:14:44.885Z,11.00
2019-02-22T08:15:49.302Z,11.00
2019-02-22T08:16:53.804Z,11.10
2019-02-22T08:17:58.429Z,11.10
2019-02-22T08:19:02.838Z,11.20
2019-02-22T08:22:15.654Z,11.20
2019-02-22T08:24:25.856Z,11.30
2019-02-22T08:26:34.691Z,11.40
2019-02-22T08:28:44.487Z,11.40
2019-02-22T08:34:04.450Z,11.60
2019-02-22T08:41:30.823Z,11.90
2019-02-22T08:45:46.033Z,12.10
2019-02-22T08:47:55.073Z,12.20
2019-02-22T08:48:59.456Z,12.20
2019-02-22T08:52:13.376Z,12.40
2019-02-22T08:53:17.791Z,12.50
2019-02-22T08:54:22.208Z,12.50
2019-02-22T08:55:26.697Z,12.60
2019-02-22T08:57:34.972Z,12.60
2019-02-22T08:58:39.433Z,12.60
2019-02-22T08:59:43.845Z,12.70
2019-02-22T09:00:48.334Z,12.70
2019-02-22T09:01:52.928Z,12.80
2019-02-22T09:04:01.679Z,12.90
2019-02-22T09:09:22.867Z,13.00
2019-02-22T09:10:27.325Z,13.00
2019-02-22T09:11:31.828Z,13.10
2019-02-22T09:16:51.463Z,13.30
2019-02-22T09:20:04.138Z,13.40
2019-02-22T09:24:20.977Z,13.60
2019-02-22T09:25:25.363Z,13.60
2019-02-22T09:26:29.779Z,13.70
2019-02-22T09:27:34.289Z,13.70
2019-02-22T09:28:38.705Z,13.70
2019-02-22T09:29:43.355Z,13.70
2019-02-22T09:30:47.833Z,13.70
2019-02-22T09:31:52.236Z,13.70
2019-02-22T09:32:56.639Z,13.70
2019-02-22T09:34:01.053Z,13.70
2019-02-22T09:36:11.648Z,13.70
2019-02-22T09:38:19.789Z,13.70
2019-02-22T09:39:24.238Z,13.60
2019-02-22T09:40:28.620Z,13.60
2019-02-22T09:41:33.073Z,13.60
2019-02-22T09:43:41.991Z,13.70
2019-02-22T09:44:46.476Z,13.80
2019-02-22T09:47:59.144Z,13.90
2019-02-22T09:50:12.838Z,13.90
2019-02-22T09:51:17.345Z,13.80
2019-02-22T09:55:32.619Z,14.00
2019-02-22T09:57:40.647Z,14.00
2019-02-22T09:59:48.944Z,14.10
2019-02-22T10:00:53.350Z,14.20
2019-02-22T10:04:05.027Z,14.30
2019-02-22T10:05:10.763Z,14.20
2019-02-22T10:08:22.373Z,14.20
2019-02-22T10:13:44.210Z,14.10
2019-02-22T10:15:52.427Z,14.10
2019-02-22T10:18:00.525Z,14.10
2019-02-22T10:19:05.960Z,14.00
2019-02-22T10:24:25.065Z,13.80
2019-02-22T10:25:29.537Z,13.80
2019-02-22T10:28:41.167Z,13.80
2019-02-22T10:30:49.153Z,13.90
2019-02-22T10:31:53.552Z,13.90
2019-02-22T10:32:58.257Z,14.00
2019-02-22T10:34:03.594Z,14.10
2019-02-22T10:35:08.243Z,14.00
2019-02-22T10:40:27.077Z,13.90
2019-02-22T10:41:32.515Z,14.00
2019-02-22T10:43:40.516Z,14.10
2019-02-22T10:44:45.016Z,14.20
2019-02-22T10:45:49.512Z,14.30
2019-02-22T10:46:53.949Z,14.30
2019-02-22T10:50:07.586Z,14.30
2019-02-22T10:51:12.303Z,14.30
2019-02-22T10:53:20.269Z,14.30
2019-02-22T10:54:24.650Z,14.40
2019-02-22T10:56:32.706Z,14.60
2019-02-22T10:57:37.111Z,14.70
2019-02-22T11:00:48.725Z,14.60
2019-02-22T11:05:04.731Z,14.50
2019-02-22T11:06:09.421Z,14.60
2019-02-22T11:10:24.991Z,14.70
2019-02-22T11:13:36.605Z,14.90
2019-02-22T11:18:56.696Z,15.20
2019-02-22T11:20:01.316Z,15.30
2019-02-22T11:21:05.832Z,15.50
2019-02-22T11:25:21.018Z,15.90
2019-02-22T11:26:26.441Z,15.90
2019-02-22T11:28:34.441Z,15.80
2019-02-22T11:29:39.255Z,15.80
2019-02-22T11:31:48.261Z,15.90
2019-02-22T11:33:56.283Z,15.90
2019-02-22T11:37:09.248Z,15.80
2019-02-22T11:41:24.905Z,15.70
2019-02-22T11:43:32.905Z,15.70
2019-02-22T11:47:48.217Z,15.70
2019-02-22T11:51:00.028Z,15.60
2019-02-22T11:53:08.088Z,15.60
2019-02-22T11:56:19.819Z,15.50
2019-02-22T11:57:25.099Z,15.40
2019-02-22T11:59:33.104Z,15.40
2019-02-22T12:00:37.703Z,15.40
2019-02-22T12:01:42.551Z,15.30
2019-02-22T12:05:58.150Z,15.30
2019-02-22T12:07:02.932Z,15.30
2019-02-22T12:09:11.153Z,15.40
2019-02-22T12:11:19.454Z,15.50
2019-02-22T12:14:31.150Z,15.60
2019-02-22T12:15:35.645Z,15.70
2019-02-22T12:17:43.667Z,15.80
2019-02-22T12:18:48.372Z,15.80
2019-02-22T12:19:52.799Z,15.90
2019-02-22T12:25:12.788Z,15.80
2019-02-22T12:27:20.763Z,15.80
2019-02-22T12:29:28.898Z,16.00
2019-02-22T12:31:36.985Z,16.00
2019-02-22T12:32:41.413Z,16.10
2019-02-22T12:34:49.410Z,16.10
2019-02-22T12:35:54.407Z,16.00
2019-02-22T12:39:06.328Z,16.00
2019-02-22T12:40:12.891Z,16.00
2019-02-22T12:41:17.297Z,16.00
2019-02-22T12:43:25.301Z,15.90
2019-02-22T12:45:33.603Z,15.70
2019-02-22T12:46:38.011Z,15.70
2019-02-22T12:48:46.231Z,15.60
2019-02-22T12:49:50.728Z,15.60
2019-02-22T12:53:02.523Z,15.60
2019-02-22T12:59:25.277Z,15.80
2019-02-22T13:00:29.705Z,15.80
2019-02-22T13:02:37.804Z,15.90
2019-02-22T13:05:49.506Z,16.00
2019-02-22T13:07:57.563Z,16.20
2019-02-22T13:09:01.988Z,16.20
2019-02-22T13:14:22.725Z,16.40
2019-02-22T13:15:27.146Z,16.40
2019-02-22T13:16:31.531Z,16.30
2019-02-22T13:17:35.953Z,16.40
2019-02-22T13:20:47.650Z,16.40
2019-02-22T13:22:55.626Z,16.40
2019-02-22T13:24:00.058Z,16.50
2019-02-22T13:25:07.265Z,16.50
2019-02-22T13:27:15.231Z,16.60
2019-02-22T13:28:19.745Z,16.60
2019-02-22T13:32:35.007Z,16.80
2019-02-22T13:33:39.433Z,16.80
2019-02-22T13:34:43.853Z,16.90
2019-02-22T13:35:48.357Z,17.00
2019-02-22T13:36:53.884Z,17.00
2019-02-22T13:37:58.562Z,16.90
2019-02-22T13:41:17.249Z,16.90
2019-02-22T13:44:28.968Z,16.90
2019-02-22T13:45:34.486Z,16.90
2019-02-22T13:46:39.206Z,16.90
2019-02-22T13:47:44.265Z,16.90
2019-02-22T13:48:48.651Z,17.00
2019-02-22T13:52:00.844Z,16.90
2019-02-22T13:55:13.455Z,16.80
2019-02-22T13:58:25.857Z,16.70
2019-02-22T13:59:30.283Z,16.70
2019-02-22T14:01:38.380Z,16.60
2019-02-22T14:02:42.763Z,16.50
2019-02-22T14:04:50.980Z,16.40
2019-02-22T14:05:55.414Z,16.40
2019-02-22T14:06:59.797Z,16.30
2019-02-22T14:08:04.227Z,16.30
2019-02-22T14:11:16.497Z,16.20
2019-02-22T14:14:30.482Z,16.00
2019-02-22T14:17:42.174Z,16.10
2019-02-22T14:18:46.690Z,16.00
2019-02-22T14:19:51.202Z,16.00
2019-02-22T14:20:56.222Z,16.00
2019-02-22T14:25:12.748Z,16.00
2019-02-22T14:26:17.246Z,15.90
2019-02-22T14:27:21.661Z,15.80
2019-02-22T14:29:29.963Z,15.80
2019-02-22T14:33:45.245Z,15.70
2019-02-22T14:35:53.237Z,15.70
2019-02-22T14:38:01.239Z,15.70
2019-02-22T14:41:17.140Z,15.60
2019-02-22T14:42:21.543Z,15.60
2019-02-22T14:44:29.544Z,15.60
2019-02-22T14:45:34.304Z,15.60
2019-02-22T14:47:42.324Z,15.60
2019-02-22T14:48:46.723Z,15.60
2019-02-22T14:49:51.189Z,15.60
2019-02-22T14:58:21.238Z,15.70
2019-02-22T14:59:25.898Z,15.70
2019-02-22T15:00:30.373Z,15.70
2019-02-22T15:02:38.466Z,15.80
2019-02-22T15:04:47.177Z,15.80
2019-02-22T15:05:51.577Z,15.80
2019-02-22T15:06:55.993Z,15.80
2019-02-22T15:08:00.916Z,15.80
2019-02-22T15:11:14.346Z,15.80
2019-02-22T15:13:22.353Z,15.70
2019-02-22T15:14:26.737Z,15.70
2019-02-22T15:15:31.371Z,15.70
2019-02-22T15:17:39.373Z,15.70
2019-02-22T15:18:43.776Z,15.60
2019-02-22T15:20:52.201Z,15.60
2019-02-22T15:21:56.592Z,15.50
2019-02-22T15:23:02.601Z,15.50
2019-02-22T15:25:14.177Z,15.40
2019-02-22T15:29:29.569Z,15.30
2019-02-22T15:32:41.210Z,15.20
2019-02-22T15:33:45.820Z,15.20
2019-02-22T15:34:51.234Z,15.20
2019-02-22T15:35:56.303Z,15.10
2019-02-22T15:39:08.189Z,15.00
2019-02-22T15:40:14.268Z,14.90
2019-02-22T15:41:19.184Z,14.90
2019-02-22T15:45:34.645Z,14.80
2019-02-22T15:46:39.737Z,14.80
2019-02-22T15:51:58.643Z,14.60
2019-02-22T15:54:06.707Z,14.60
2019-02-22T15:59:26.638Z,14.40
2019-02-22T16:09:03.134Z,14.30
2019-02-22T16:10:09.794Z,14.20
2019-02-22T16:15:30.299Z,14.20
2019-02-22T16:16:34.963Z,14.10
2019-02-22T16:19:46.523Z,14.10
2019-02-22T16:20:50.913Z,14.00
2019-02-22T16:21:55.361Z,14.00
2019-02-22T16:24:03.381Z,14.00
2019-02-22T16:26:11.430Z,13.90
2019-02-22T16:27:15.791Z,13.90
2019-02-22T16:28:20.201Z,13.90
2019-02-22T16:29:24.593Z,13.90
2019-02-22T16:32:36.237Z,13.80
2019-02-22T16:33:40.609Z,13.80
2019-02-22T16:35:48.692Z,13.80
2019-02-22T16:37:56.761Z,13.70
2019-02-22T16:39:01.103Z,13.70
2019-02-22T16:41:13.545Z,13.70
2019-02-22T16:43:21.599Z,13.70
2019-02-22T16:44:27.221Z,13.70
2019-02-22T16:46:35.412Z,13.60
2019-02-22T16:48:44.903Z,13.60
2019-02-22T16:56:14.614Z,13.50
2019-02-22T16:57:19.016Z,13.50
2019-02-22T16:58:23.869Z,13.50
2019-02-22T16:59:28.256Z,13.50
2019-02-22T17:00:32.661Z,13.50
2019-02-22T17:01:37.168Z,13.40
2019-02-22T17:03:45.155Z,13.40
2019-02-22T17:04:49.587Z,13.40
2019-02-22T17:05:54.087Z,13.40
2019-02-22T17:06:58.545Z,13.30
2019-02-22T17:09:07.629Z,13.30
2019-02-22T17:10:12.235Z,13.30
2019-02-22T17:11:16.643Z,13.30
2019-02-22T17:12:22.089Z,13.30
2019-02-22T17:14:31.073Z,13.20
2019-02-22T17:15:35.512Z,13.20
2019-02-22T17:16:45.749Z,13.20
2019-02-22T17:20:57.260Z,13.10
2019-02-22T17:25:15.617Z,13.10
2019-02-22T17:26:20.021Z,13.10
2019-02-22T17:27:26.113Z,13.10
2019-02-22T17:28:30.474Z,13.00
2019-02-22T17:31:42.071Z,13.00
2019-02-22T17:33:50.051Z,13.00
2019-02-22T17:34:54.769Z,13.00
2019-02-22T17:37:03.516Z,13.00
2019-02-22T17:39:11.514Z,12.90
2019-02-22T17:41:25.749Z,12.90
2019-02-22T17:42:30.169Z,12.90
2019-02-22T17:45:42.531Z,12.90
2019-02-22T17:46:57.359Z,12.90
2019-02-22T17:47:53.877Z,12.90
2019-02-22T17:52:09.093Z,12.80
2019-02-22T17:53:13.531Z,12.80
2019-02-22T17:54:17.949Z,12.80
2019-02-22T17:56:25.976Z,12.80
2019-02-22T17:57:30.362Z,12.70
2019-02-22T18:01:45.635Z,12.70
2019-02-22T18:04:57.256Z,12.60
2019-02-22T18:06:01.644Z,12.60
2019-02-22T18:07:06.034Z,12.60
2019-02-22T18:09:14.759Z,12.50
2019-02-22T18:10:20.305Z,12.50
2019-02-22T18:12:29.925Z,12.50
2019-02-22T18:13:34.354Z,12.40
2019-02-22T18:16:46.046Z,12.40
2019-02-22T18:18:54.036Z,12.30
2019-02-22T18:19:58.459Z,12.30
2019-02-22T18:22:07.470Z,12.30
2019-02-22T18:23:12.907Z,12.30
2019-02-22T18:24:17.293Z,12.30
2019-02-22T18:25:25.483Z,12.20
2019-02-22T18:26:29.828Z,12.20
2019-02-22T18:27:34.321Z,12.20
2019-02-22T18:28:38.739Z,12.20
2019-02-22T18:30:46.725Z,12.10
2019-02-22T18:32:54.739Z,12.10
2019-02-22T18:33:59.132Z,12.10
2019-02-22T18:35:04.089Z,12.10
2019-02-22T18:40:23.900Z,12.00
2019-02-22T18:41:29.324Z,12.00
2019-02-22T18:43:37.299Z,12.00
2019-02-22T18:46:48.898Z,12.00
2019-02-22T18:54:14.911Z,11.90
2019-02-22T18:55:19.301Z,11.90
2019-02-22T18:56:23.675Z,11.90
2019-02-22T18:59:35.369Z,11.90
2019-02-22T19:00:39.786Z,11.90
2019-02-22T19:02:48.191Z,11.90
2019-02-22T19:04:56.273Z,11.80
2019-02-22T19:08:08.057Z,11.80
2019-02-22T19:10:18.015Z,11.80
2019-02-22T19:14:34.425Z,11.80
2019-02-22T19:15:38.847Z,11.80
2019-02-22T19:16:43.250Z,11.80
2019-02-22T19:18:51.827Z,11.70
2019-02-22T19:19:56.282Z,11.70
2019-02-22T19:21:00.688Z,11.70
2019-02-22T19:22:05.903Z,11.70
2019-02-22T19:23:11.120Z,11.70
2019-02-22T19:24:15.510Z,11.60
2019-02-22T19:25:19.925Z,11.70
2019-02-22T19:27:28.986Z,11.60
2019-02-22T19:28:33.577Z,11.60
2019-02-22T19:29:37.945Z,11.60
2019-02-22T19:30:42.407Z,11.60
2019-02-22T19:31:47.057Z,11.60
2019-02-22T19:32:51.811Z,11.60
2019-02-22T19:33:56.264Z,11.60
2019-02-22T19:35:00.652Z,11.60
2019-02-22T19:38:12.358Z,11.60
2019-02-22T19:41:26.700Z,11.50
2019-02-22T19:43:34.902Z,11.50
2019-02-22T19:45:43.950Z,11.50
2019-02-22T19:47:51.969Z,11.50
2019-02-22T19:50:01.070Z,11.50
2019-02-22T19:51:05.908Z,11.40
2019-02-22T19:54:17.829Z,11.40
2019-02-22T19:56:25.804Z,11.40
2019-02-22T19:57:30.188Z,11.40
2019-02-22T20:04:56.354Z,11.30
2019-02-22T20:08:08.980Z,11.20
2019-02-22T20:09:13.668Z,11.20
2019-02-22T20:11:23.122Z,11.20
2019-02-22T20:14:34.803Z,11.20
2019-02-22T20:15:39.315Z,11.20
2019-02-22T20:16:43.698Z,11.20
2019-02-22T20:17:53.929Z,11.20
2019-02-22T20:21:01.972Z,11.20
2019-02-22T20:22:06.360Z,11.20
2019-02-22T20:24:14.351Z,11.20
2019-02-22T20:25:18.763Z,11.10
2019-02-22T20:26:24.338Z,11.10
2019-02-22T20:28:32.300Z,11.10
2019-02-22T20:30:40.448Z,11.10
2019-02-22T20:31:44.857Z,11.10
2019-02-22T20:36:01.139Z,11.10
2019-02-22T20:37:05.580Z,11.10
2019-02-22T20:40:17.473Z,11.10
2019-02-22T20:42:26.681Z,11.10
2019-02-22T20:43:31.108Z,11.10
2019-02-22T20:46:42.792Z,11.10
2019-02-22T20:49:54.542Z,11.10
2019-02-22T20:53:06.484Z,11.10
2019-02-22T20:55:15.011Z,11.10
2019-02-22T21:00:35.762Z,11.00
2019-02-22T21:01:40.128Z,11.00
2019-02-22T21:02:44.532Z,11.00
2019-02-22T21:05:56.234Z,11.00
2019-02-22T21:09:07.930Z,11.00
2019-02-22T21:12:24.437Z,11.00
2019-02-22T21:14:33.435Z,11.00
2019-02-22T21:17:45.135Z,10.90
2019-02-22T21:20:56.727Z,10.90
2019-02-22T21:22:01.142Z,10.90
2019-02-22T21:23:05.557Z,10.90
2019-02-22T21:24:09.955Z,10.90
2019-02-22T21:25:14.376Z,10.90
2019-02-22T21:29:29.656Z,10.80
2019-02-22T21:33:44.935Z,10.80
2019-02-22T21:34:49.346Z,10.80
2019-02-22T21:35:53.757Z,10.70
2019-02-22T21:42:20.595Z,10.60
2019-02-22T21:43:25.236Z,10.60
2019-02-22T21:44:29.639Z,10.60
2019-02-22T21:45:34.053Z,10.60
2019-02-22T21:46:38.461Z,10.50
2019-02-22T21:49:50.161Z,10.50
2019-02-22T21:50:54.573Z,10.50
2019-02-22T21:53:02.672Z,10.50
2019-02-22T21:54:07.081Z,10.50
2019-02-22T21:58:23.641Z,10.40
2019-02-22T22:03:42.561Z,10.40
2019-02-22T22:06:54.169Z,10.30
2019-02-22T22:07:58.534Z,10.30
2019-02-22T22:11:12.307Z,10.30
2019-02-22T22:14:23.904Z,10.20
2019-02-22T22:18:39.189Z,10.20
2019-02-22T22:19:43.787Z,10.20
2019-02-22T22:20:48.210Z,10.10
2019-02-22T22:29:20.537Z,10.10
2019-02-22T22:36:46.565Z,10.00
2019-02-22T22:37:50.969Z,9.90
2019-02-22T22:43:09.745Z,9.90
2019-02-22T22:44:14.231Z,9.90
2019-02-22T22:46:22.248Z,9.90
2019-02-22T22:47:27.897Z,9.90
2019-02-22T22:48:32.305Z,9.90
2019-02-22T22:49:36.797Z,9.90
2019-02-22T22:51:44.816Z,9.80
2019-02-22T22:52:49.309Z,9.90
2019-02-22T22:53:53.660Z,9.80
2019-02-22T22:56:01.630Z,9.90
2019-02-22T22:57:06.039Z,9.90
2019-02-22T22:58:10.446Z,9.80
2019-02-22T23:00:29.788Z,9.80
2019-02-22T23:01:35.895Z,9.80
2019-02-22T23:02:40.563Z,9.70
2019-02-22T23:03:46.257Z,9.70
2019-02-22T23:05:54.321Z,9.70
2019-02-22T23:06:58.741Z,9.70
2019-02-22T23:09:06.834Z,9.50
2019-02-22T23:10:12.895Z,9.70
2019-02-22T23:13:24.530Z,9.70
2019-02-22T23:14:29.182Z,9.70
2019-02-22T23:15:33.609Z,9.70
2019-02-22T23:16:38.081Z,9.70
2019-02-22T23:17:42.727Z,9.60
2019-02-22T23:18:47.140Z,9.60
2019-02-22T23:20:56.164Z,9.60
2019-02-22T23:23:04.147Z,9.60
2019-02-22T23:26:16.776Z,9.60
2019-02-22T23:27:21.184Z,9.60
2019-02-22T23:28:25.596Z,9.60
2019-02-22T23:30:34.834Z,9.50
2019-02-22T23:33:48.361Z,9.50
2019-02-22T23:37:01.489Z,9.40
2019-02-22T23:39:09.492Z,9.50
2019-02-22T23:40:13.978Z,9.20
2019-02-22T23:47:40.950Z,9.30
2019-02-22T23:50:52.505Z,9.20
2019-02-22T23:53:00.465Z,9.20
2019-02-22T23:56:12.026Z,9.50
2019-02-22T23:57:16.464Z,9.40
2019-02-22T23:58:20.871Z,9.30
2019-02-22T23:59:25.285Z,9.20
